createdAt,value
2022-09-21T00:01:42.143Z,82.20
2022-09-21T00:04:09.561Z,82.10
2022-09-21T00:06:37.498Z,82.10
2022-09-21T00:09:05.422Z,82.00
2022-09-21T00:11:34.127Z,82.00
2022-09-21T00:14:14.464Z,82.00
2022-09-21T00:16:48.046Z,81.60
2022-09-21T00:19:18.156Z,82.10
2022-09-21T00:21:45.694Z,82.40
2022-09-21T00:24:15.517Z,82.40
2022-09-21T00:26:42.936Z,82.40
2022-09-21T00:29:13.968Z,82.40
2022-09-21T00:31:41.334Z,82.30
2022-09-21T00:34:08.864Z,82.30
2022-09-21T00:36:38.851Z,82.40
2022-09-21T00:39:12.359Z,82.50
2022-09-21T00:41:39.723Z,82.10
2022-09-21T00:44:19.176Z,82.30
2022-09-21T00:46:49.292Z,81.60
2022-09-21T00:49:17.779Z,82.00
2022-09-21T00:51:48.158Z,81.80
2022-09-21T00:54:25.065Z,81.70
2022-09-21T00:56:55.086Z,81.70
2022-09-21T00:59:30.389Z,81.50
2022-09-21T01:01:59.642Z,81.30
2022-09-21T01:04:28.448Z,81.40
2022-09-21T01:07:02.174Z,81.30
2022-09-21T01:09:29.746Z,81.10
2022-09-21T01:12:12.782Z,81.40
2022-09-21T01:15:05.345Z,81.40
2022-09-21T01:17:41.584Z,80.60
2022-09-21T01:20:39.585Z,81.10
2022-09-21T01:23:41.168Z,80.40
2022-09-21T01:26:23.506Z,80.60
2022-09-21T01:29:13.050Z,80.50
2022-09-21T01:31:46.708Z,81.20
2022-09-21T01:34:26.960Z,80.90
2022-09-21T01:37:00.355Z,80.80
2022-09-21T01:39:30.537Z,81.10
2022-09-21T01:41:59.560Z,81.20
2022-09-21T01:44:33.468Z,81.30
2022-09-21T01:47:06.334Z,81.20
2022-09-21T01:49:39.416Z,81.30
2022-09-21T01:52:28.161Z,81.60
2022-09-21T01:55:12.571Z,81.70
2022-09-21T01:58:30.279Z,82.20
2022-09-21T02:00:58.808Z,82.00
2022-09-21T02:03:33.851Z,82.70
2022-09-21T02:06:02.940Z,82.90
2022-09-21T02:08:32.447Z,83.30
2022-09-21T02:11:02.488Z,83.40
2022-09-21T02:13:34.778Z,83.60
2022-09-21T02:16:12.324Z,83.60
2022-09-21T02:18:48.444Z,83.30
2022-09-21T02:21:33.388Z,83.60
2022-09-21T02:24:08.556Z,82.90
2022-09-21T02:27:02.636Z,83.60
2022-09-21T02:29:47.829Z,83.00
2022-09-21T02:32:43.357Z,83.40
2022-09-21T02:35:30.184Z,83.40
2022-09-21T02:38:11.130Z,83.40
2022-09-21T02:40:49.304Z,83.00
2022-09-21T02:43:24.460Z,83.50
2022-09-21T02:46:05.422Z,83.10
2022-09-21T02:48:59.730Z,83.20
2022-09-21T02:51:36.944Z,83.00
2022-09-21T02:54:09.029Z,83.00
2022-09-21T02:56:38.086Z,83.30
2022-09-21T02:59:09.142Z,83.30
2022-09-21T03:01:39.553Z,83.30
2022-09-21T03:04:06.927Z,83.40
2022-09-21T03:06:34.670Z,83.40
2022-09-21T03:09:02.036Z,83.40
2022-09-21T03:11:30.006Z,83.60
2022-09-21T03:13:57.320Z,83.70
2022-09-21T03:16:27.148Z,83.60
2022-09-21T03:18:59.827Z,83.60
2022-09-21T03:21:27.403Z,83.70
2022-09-21T03:23:54.706Z,83.70
2022-09-21T03:26:22.363Z,83.90
2022-09-21T03:28:50.609Z,83.90
2022-09-21T03:31:18.269Z,84.00
2022-09-21T03:33:45.607Z,84.10
2022-09-21T03:36:13.132Z,84.30
2022-09-21T03:38:43.095Z,84.10
2022-09-21T03:41:10.522Z,84.00
2022-09-21T03:43:40.539Z,84.10
2022-09-21T03:46:10.927Z,83.90
2022-09-21T03:48:39.283Z,83.50
2022-09-21T03:51:09.400Z,83.70
2022-09-21T03:53:41.468Z,83.50
2022-09-21T03:56:08.886Z,83.20
2022-09-21T03:58:36.364Z,83.30
2022-09-21T04:01:06.736Z,83.30
2022-09-21T04:03:34.112Z,83.30
2022-09-21T04:06:09.899Z,83.20
2022-09-21T04:08:37.442Z,82.90
2022-09-21T04:11:17.808Z,83.20
2022-09-21T04:13:49.494Z,82.60
2022-09-21T04:16:17.954Z,83.00
2022-09-21T04:18:50.346Z,82.40
2022-09-21T04:21:21.700Z,83.10
2022-09-21T04:23:49.944Z,83.10
2022-09-21T04:26:25.572Z,83.20
2022-09-21T04:28:55.337Z,83.10
2022-09-21T04:31:24.055Z,83.30
2022-09-21T04:33:53.042Z,83.20
2022-09-21T04:36:24.077Z,83.10
2022-09-21T04:38:54.036Z,83.00
2022-09-21T04:41:21.347Z,83.20
2022-09-21T04:43:53.419Z,83.20
2022-09-21T04:46:23.357Z,83.10
2022-09-21T04:48:50.815Z,83.10
2022-09-21T04:51:18.367Z,83.20
2022-09-21T04:53:48.320Z,83.10
2022-09-21T04:56:16.614Z,82.90
2022-09-21T04:58:44.699Z,83.00
2022-09-21T05:01:14.191Z,82.90
2022-09-21T05:03:41.611Z,82.70
2022-09-21T05:06:11.677Z,82.60
2022-09-21T05:08:58.654Z,82.60
2022-09-21T05:11:30.743Z,82.70
2022-09-21T05:13:57.976Z,82.80
2022-09-21T05:16:27.608Z,82.90
2022-09-21T05:18:55.681Z,82.80
2022-09-21T05:21:25.735Z,82.90
2022-09-21T05:23:53.172Z,83.10
2022-09-21T05:26:20.969Z,83.10
2022-09-21T05:28:48.843Z,83.20
2022-09-21T05:31:37.857Z,83.20
2022-09-21T05:34:13.895Z,83.10
2022-09-21T05:37:15.256Z,83.20
2022-09-21T05:39:43.114Z,82.20
2022-09-21T05:42:11.521Z,82.80
2022-09-21T05:44:42.095Z,83.00
2022-09-21T05:47:26.611Z,83.80
2022-09-21T05:50:06.269Z,83.10
2022-09-21T05:52:51.707Z,83.60
2022-09-21T05:55:47.803Z,83.30
2022-09-21T05:58:57.257Z,83.50
2022-09-21T06:02:06.000Z,83.40
2022-09-21T06:04:33.767Z,83.70
2022-09-21T06:07:01.290Z,84.60
2022-09-21T06:09:28.836Z,84.50
2022-09-21T06:11:56.219Z,84.50
2022-09-21T06:14:26.639Z,84.60
2022-09-21T06:16:58.669Z,84.50
2022-09-21T06:19:28.407Z,84.50
2022-09-21T06:22:05.845Z,84.40
2022-09-21T06:24:35.202Z,84.40
2022-09-21T06:27:02.467Z,84.50
2022-09-21T06:29:31.962Z,84.40
2022-09-21T06:32:00.012Z,84.40
2022-09-21T06:34:29.573Z,84.50
2022-09-21T06:36:57.479Z,84.60
2022-09-21T06:39:24.891Z,84.40
2022-09-21T06:41:56.452Z,84.50
2022-09-21T06:44:29.927Z,84.50
2022-09-21T06:46:59.341Z,84.30
2022-09-21T06:49:28.743Z,84.20
2022-09-21T06:51:56.456Z,84.10
2022-09-21T06:54:28.353Z,84.10
2022-09-21T06:57:00.165Z,84.00
2022-09-21T06:59:27.644Z,84.10
2022-09-21T07:01:58.387Z,84.30
2022-09-21T07:04:27.982Z,84.10
2022-09-21T07:06:58.939Z,84.30
2022-09-21T07:12:17.903Z,83.80
2022-09-21T07:14:49.843Z,83.70
2022-09-21T07:17:20.074Z,83.60
2022-09-21T07:19:50.535Z,83.60
2022-09-21T07:22:17.873Z,83.30
2022-09-21T07:24:46.647Z,83.20
2022-09-21T07:27:13.961Z,83.10
2022-09-21T07:29:43.586Z,83.00
2022-09-21T07:32:13.500Z,82.70
2022-09-21T07:34:43.807Z,82.40
2022-09-21T07:37:11.117Z,82.20
2022-09-21T07:39:40.868Z,82.20
2022-09-21T07:42:08.430Z,82.60
2022-09-21T07:44:37.884Z,82.70
2022-09-21T07:47:05.451Z,83.00
2022-09-21T07:49:32.833Z,83.10
2022-09-21T07:52:03.858Z,83.50
2022-09-21T07:54:36.122Z,83.90
2022-09-21T07:57:23.746Z,83.60
2022-09-21T07:59:53.544Z,84.10
2022-09-21T08:02:21.000Z,83.50
2022-09-21T08:04:48.337Z,83.80
2022-09-21T08:07:17.912Z,83.60
2022-09-21T08:09:49.246Z,83.30
2022-09-21T08:12:20.797Z,83.10
2022-09-21T08:14:48.342Z,82.90
2022-09-21T08:17:18.363Z,82.80
2022-09-21T08:19:48.576Z,82.90
2022-09-21T08:22:18.980Z,82.80
2022-09-21T08:24:47.378Z,83.40
2022-09-21T08:27:16.828Z,83.40
2022-09-21T08:29:46.389Z,83.40
2022-09-21T08:32:33.007Z,83.00
2022-09-21T08:35:01.466Z,82.70
2022-09-21T08:37:32.057Z,82.90
2022-09-21T08:40:07.061Z,82.70
2022-09-21T08:42:42.186Z,81.70
2022-09-21T08:45:17.643Z,81.70
2022-09-21T08:48:00.634Z,80.80
2022-09-21T08:50:48.725Z,81.50
2022-09-21T08:53:26.316Z,81.60
2022-09-21T08:55:59.014Z,81.70
2022-09-21T08:58:31.409Z,81.00
2022-09-21T09:01:08.689Z,81.30
2022-09-21T09:03:40.756Z,81.40
2022-09-21T09:06:26.613Z,81.70
2022-09-21T09:09:32.368Z,81.40
2022-09-21T09:12:22.763Z,80.70
2022-09-21T09:14:53.083Z,80.10
2022-09-21T09:17:25.764Z,80.60
2022-09-21T09:20:10.796Z,80.80
2022-09-21T09:22:44.989Z,79.00
2022-09-21T09:25:22.372Z,79.50
2022-09-21T09:27:59.215Z,78.80
2022-09-21T09:30:30.461Z,78.10
2022-09-21T09:33:13.387Z,78.40
2022-09-21T09:35:45.597Z,78.60
2022-09-21T09:38:34.012Z,79.50
2022-09-21T09:41:19.533Z,79.20
2022-09-21T09:43:55.881Z,79.30
2022-09-21T09:46:52.038Z,78.70
2022-09-21T09:49:40.045Z,77.50
2022-09-21T09:52:11.864Z,77.80
2022-09-21T09:54:39.312Z,80.00
2022-09-21T09:57:10.941Z,80.30
2022-09-21T09:59:54.025Z,80.00
2022-09-21T10:02:27.163Z,79.40
2022-09-21T10:05:06.606Z,80.50
2022-09-21T10:07:50.404Z,80.80
2022-09-21T10:10:23.735Z,79.40
2022-09-21T10:12:52.784Z,78.30
2022-09-21T10:15:23.900Z,80.40
2022-09-21T10:18:08.900Z,80.40
2022-09-21T10:20:36.326Z,78.60
2022-09-21T10:23:05.470Z,79.50
2022-09-21T10:25:35.828Z,78.60
2022-09-21T10:28:14.318Z,77.90
2022-09-21T10:30:41.851Z,77.00
2022-09-21T10:33:22.264Z,76.90
2022-09-21T10:35:53.374Z,74.00
2022-09-21T10:38:29.386Z,75.20
2022-09-21T10:40:56.999Z,74.60
2022-09-21T10:43:43.847Z,74.40
2022-09-21T10:46:14.199Z,73.80
2022-09-21T10:48:47.747Z,73.70
2022-09-21T10:51:35.298Z,74.40
2022-09-21T10:54:11.955Z,72.20
2022-09-21T10:57:07.294Z,73.80
2022-09-21T10:59:40.239Z,71.70
2022-09-21T11:02:38.651Z,73.00
2022-09-21T11:05:38.132Z,71.00
2022-09-21T11:08:16.539Z,71.30
2022-09-21T11:11:13.197Z,72.30
2022-09-21T11:13:58.383Z,68.70
2022-09-21T11:16:31.409Z,66.90
2022-09-21T11:19:31.163Z,68.80
2022-09-21T11:22:21.912Z,68.20
2022-09-21T11:24:57.152Z,70.40
2022-09-21T11:27:34.769Z,70.20
2022-09-21T11:30:17.043Z,69.00
2022-09-21T11:33:00.147Z,68.20
2022-09-21T11:35:40.911Z,68.60
2022-09-21T11:38:38.709Z,67.30
2022-09-21T11:41:24.371Z,65.50
2022-09-21T11:44:11.407Z,64.10
2022-09-21T11:47:17.257Z,63.70
2022-09-21T11:50:07.731Z,63.70
2022-09-21T11:52:59.187Z,62.50
2022-09-21T11:55:37.356Z,62.00
2022-09-21T11:58:19.609Z,62.30
2022-09-21T12:01:12.648Z,59.50
2022-09-21T12:04:20.133Z,59.70
2022-09-21T12:06:47.438Z,59.20
2022-09-21T12:09:26.514Z,60.20
2022-09-21T12:12:11.419Z,58.40
2022-09-21T12:14:47.606Z,59.40
2022-09-21T12:17:20.900Z,59.60
2022-09-21T12:19:56.071Z,60.60
2022-09-21T12:22:35.925Z,59.10
2022-09-21T12:25:26.453Z,59.90
2022-09-21T12:28:07.576Z,61.90
2022-09-21T12:30:37.844Z,61.40
2022-09-21T12:33:24.359Z,62.40
2022-09-21T12:36:14.756Z,61.30
2022-09-21T12:38:48.847Z,63.00
2022-09-21T12:41:47.067Z,59.80
2022-09-21T12:44:33.726Z,54.60
2022-09-21T12:47:09.667Z,57.20
2022-09-21T12:49:52.823Z,54.90
2022-09-21T12:52:29.765Z,54.40
2022-09-21T12:55:28.948Z,51.90
2022-09-21T12:58:16.468Z,52.10
2022-09-21T13:01:11.394Z,51.30
2022-09-21T13:03:53.311Z,51.20
2022-09-21T13:06:53.142Z,51.30
2022-09-21T13:09:22.394Z,54.00
2022-09-21T13:12:00.241Z,57.30
2022-09-21T13:14:34.859Z,53.80
2022-09-21T13:17:05.714Z,52.40
2022-09-21T13:19:35.413Z,53.20
2022-09-21T13:22:33.485Z,51.40
2022-09-21T13:25:21.548Z,48.40
2022-09-21T13:28:04.333Z,49.30
2022-09-21T13:30:44.228Z,49.90
2022-09-21T13:33:23.141Z,50.00
2022-09-21T13:36:02.329Z,50.10
2022-09-21T13:38:44.677Z,50.80
2022-09-21T13:41:17.741Z,52.10
2022-09-21T13:43:59.763Z,52.10
2022-09-21T13:46:36.224Z,54.30
2022-09-21T13:49:18.700Z,54.30
2022-09-21T13:52:07.372Z,53.80
2022-09-21T13:54:49.953Z,53.10
2022-09-21T13:57:38.212Z,54.40
2022-09-21T14:00:09.186Z,54.30
2022-09-21T14:03:04.312Z,55.30
2022-09-21T14:05:43.250Z,55.20
2022-09-21T14:08:16.271Z,55.60
2022-09-21T14:11:08.124Z,54.90
2022-09-21T14:13:41.832Z,55.60
2022-09-21T14:16:47.538Z,57.10
2022-09-21T14:19:17.860Z,55.80
2022-09-21T14:22:03.797Z,57.60
2022-09-21T14:24:44.925Z,56.00
2022-09-21T14:27:32.864Z,56.30
2022-09-21T14:30:08.292Z,56.70
2022-09-21T14:32:49.334Z,58.10
2022-09-21T14:35:24.641Z,58.20
2022-09-21T14:38:01.604Z,57.70
2022-09-21T14:40:31.723Z,57.30
2022-09-21T14:43:03.483Z,58.70
2022-09-21T14:45:59.300Z,57.40
2022-09-21T14:48:48.514Z,56.00
2022-09-21T14:51:38.665Z,55.90
2022-09-21T14:54:12.172Z,55.50
2022-09-21T14:56:39.508Z,56.80
2022-09-21T14:59:22.157Z,57.90
2022-09-21T15:02:14.486Z,58.30
2022-09-21T15:05:06.587Z,57.10
2022-09-21T15:08:07.881Z,56.70
2022-09-21T15:10:58.166Z,56.70
2022-09-21T15:13:36.675Z,58.70
2022-09-21T15:16:25.859Z,58.70
2022-09-21T15:19:16.291Z,56.40
2022-09-21T15:21:47.832Z,58.20
2022-09-21T15:24:27.874Z,57.90
2022-09-21T15:27:03.311Z,56.90
2022-09-21T15:29:32.610Z,57.50
2022-09-21T15:32:04.027Z,59.10
2022-09-21T15:34:32.119Z,59.30
2022-09-21T15:37:18.638Z,58.80
2022-09-21T15:39:46.184Z,58.30
2022-09-21T15:42:23.305Z,60.20
2022-09-21T15:45:11.103Z,59.60
2022-09-21T15:47:40.479Z,59.30
2022-09-21T15:50:16.729Z,60.60
2022-09-21T15:53:19.790Z,60.60
2022-09-21T15:55:48.804Z,59.10
2022-09-21T15:58:37.502Z,62.20
2022-09-21T16:01:10.505Z,60.10
2022-09-21T16:03:39.993Z,61.80
2022-09-21T16:06:38.447Z,62.10
2022-09-21T16:09:36.303Z,61.50
2022-09-21T16:12:28.728Z,61.20
2022-09-21T16:15:05.542Z,62.50
2022-09-21T16:17:37.643Z,63.50
2022-09-21T16:20:19.856Z,62.90
2022-09-21T16:22:55.423Z,60.10
2022-09-21T16:25:34.568Z,61.90
2022-09-21T16:28:05.704Z,62.50
2022-09-21T16:30:47.293Z,63.20
2022-09-21T16:33:34.732Z,61.90
2022-09-21T16:36:04.552Z,62.90
2022-09-21T16:38:33.616Z,64.60
2022-09-21T16:41:03.027Z,64.40
2022-09-21T16:43:34.228Z,64.60
2022-09-21T16:46:03.465Z,64.80
2022-09-21T16:48:32.164Z,65.30
2022-09-21T16:50:59.904Z,65.60
2022-09-21T16:53:29.754Z,65.80
2022-09-21T16:55:57.027Z,65.90
2022-09-21T16:58:24.772Z,66.10
2022-09-21T17:00:56.150Z,66.30
2022-09-21T17:03:23.654Z,66.60
2022-09-21T17:05:57.303Z,65.30
2022-09-21T17:08:25.104Z,67.30
2022-09-21T17:10:54.921Z,67.30
2022-09-21T17:13:25.055Z,67.30
2022-09-21T17:15:53.459Z,68.10
2022-09-21T17:18:25.532Z,68.00
2022-09-21T17:20:55.285Z,68.00
2022-09-21T17:23:27.666Z,67.70
2022-09-21T17:25:55.396Z,68.10
2022-09-21T17:28:31.226Z,68.10
2022-09-21T17:31:03.484Z,67.30
2022-09-21T17:33:33.756Z,67.80
2022-09-21T17:36:02.416Z,68.00
2022-09-21T17:38:35.442Z,68.30
2022-09-21T17:41:29.673Z,68.20
2022-09-21T17:44:14.704Z,67.50
2022-09-21T17:46:51.048Z,67.30
2022-09-21T17:49:18.887Z,68.50
2022-09-21T17:52:21.927Z,68.80
2022-09-21T17:54:52.959Z,69.20
2022-09-21T17:57:49.347Z,69.30
2022-09-21T18:00:34.615Z,68.10
2022-09-21T18:03:05.160Z,68.40
2022-09-21T18:05:32.749Z,69.00
2022-09-21T18:08:00.356Z,69.30
2022-09-21T18:10:30.539Z,69.60
2022-09-21T18:13:00.953Z,69.60
2022-09-21T18:15:48.566Z,69.80
2022-09-21T18:18:20.117Z,69.80
2022-09-21T18:21:06.064Z,69.70
2022-09-21T18:23:41.569Z,69.70
2022-09-21T18:26:16.458Z,69.20
2022-09-21T18:28:59.322Z,70.10
2022-09-21T18:31:42.094Z,70.00
2022-09-21T18:34:29.224Z,69.60
2022-09-21T18:37:39.044Z,70.10
2022-09-21T18:40:35.020Z,69.80
2022-09-21T18:43:35.327Z,69.90
2022-09-21T18:46:38.250Z,70.20
2022-09-21T18:49:27.061Z,69.90
2022-09-21T18:52:10.382Z,71.10
2022-09-21T18:54:37.961Z,70.50
2022-09-21T18:57:15.478Z,71.40
2022-09-21T18:59:45.967Z,70.60
2022-09-21T19:02:20.161Z,71.50
2022-09-21T19:04:49.297Z,71.50
2022-09-21T19:07:39.578Z,71.50
2022-09-21T19:10:09.572Z,71.00
2022-09-21T19:13:03.144Z,71.50
2022-09-21T19:16:01.046Z,70.30
2022-09-21T19:18:37.825Z,70.50
2022-09-21T19:21:18.346Z,71.80
2022-09-21T19:23:51.684Z,71.30
2022-09-21T19:27:02.532Z,71.40
2022-09-21T19:29:51.325Z,70.70
2022-09-21T19:32:31.291Z,71.80
2022-09-21T19:35:17.547Z,71.30
2022-09-21T19:37:47.351Z,71.80
2022-09-21T19:40:16.959Z,72.00
2022-09-21T19:42:50.674Z,71.90
2022-09-21T19:45:47.507Z,71.60
2022-09-21T19:48:16.793Z,71.60
2022-09-21T19:50:57.202Z,72.40
2022-09-21T19:53:43.754Z,72.20
2022-09-21T19:56:39.283Z,73.00
2022-09-21T19:59:27.838Z,72.90
2022-09-21T20:02:05.772Z,73.00
2022-09-21T20:04:55.869Z,73.00
2022-09-21T20:08:04.468Z,73.00
2022-09-21T20:10:59.924Z,73.00
2022-09-21T20:13:31.255Z,72.60
2022-09-21T20:16:19.184Z,73.40
2022-09-21T20:18:53.333Z,73.60
2022-09-21T20:21:30.113Z,73.50
2022-09-21T20:24:01.963Z,73.50
2022-09-21T20:26:32.517Z,73.60
2022-09-21T20:29:05.508Z,73.70
2022-09-21T20:31:35.360Z,73.70
2022-09-21T20:34:02.768Z,73.80
2022-09-21T20:36:30.093Z,73.90
2022-09-21T20:39:00.016Z,73.90
2022-09-21T20:41:27.373Z,73.90
2022-09-21T20:43:54.811Z,73.90
2022-09-21T20:46:22.247Z,73.90
2022-09-21T20:49:02.908Z,74.00
2022-09-21T20:51:32.122Z,74.10
2022-09-21T20:54:02.001Z,74.10
2022-09-21T20:56:30.014Z,74.20
2022-09-21T20:58:57.424Z,74.30
2022-09-21T21:01:27.510Z,74.20
2022-09-21T21:04:01.824Z,74.20
2022-09-21T21:06:35.083Z,74.20
2022-09-21T21:09:04.558Z,74.30
2022-09-21T21:11:32.152Z,74.00
2022-09-21T21:13:59.487Z,73.90
2022-09-21T21:16:26.879Z,74.00
2022-09-21T21:18:54.464Z,74.00
2022-09-21T21:21:24.043Z,74.00
2022-09-21T21:24:11.350Z,74.00
2022-09-21T21:27:00.900Z,74.10
2022-09-21T21:29:26.561Z,74.10
2022-09-21T21:31:54.291Z,73.90
2022-09-21T21:34:23.215Z,73.70
2022-09-21T21:36:50.778Z,73.60
2022-09-21T21:39:20.451Z,73.70
2022-09-21T21:41:48.127Z,73.60
2022-09-21T21:44:20.170Z,73.60
2022-09-21T21:46:48.167Z,73.60
2022-09-21T21:49:16.404Z,73.60
2022-09-21T21:51:44.801Z,73.60
2022-09-21T21:54:15.084Z,73.70
2022-09-21T21:56:42.822Z,73.70
2022-09-21T21:59:13.146Z,73.80
2022-09-21T22:01:48.049Z,73.80
2022-09-21T22:04:15.898Z,73.70
2022-09-21T22:06:43.417Z,73.80
2022-09-21T22:09:14.782Z,73.80
2022-09-21T22:11:44.985Z,74.10
2022-09-21T22:14:12.903Z,74.40
2022-09-21T22:16:48.466Z,74.50
2022-09-21T22:19:16.143Z,74.70
2022-09-21T22:21:53.272Z,74.80
2022-09-21T22:24:22.345Z,74.70
2022-09-21T22:26:50.122Z,74.50
2022-09-21T22:29:17.670Z,74.30
2022-09-21T22:31:50.291Z,74.30
2022-09-21T22:34:17.792Z,74.10
2022-09-21T22:36:45.458Z,74.20
2022-09-21T22:39:13.361Z,74.30
2022-09-21T22:41:42.612Z,74.80
2022-09-21T22:44:10.779Z,74.30
2022-09-21T22:46:41.871Z,74.30
2022-09-21T22:49:09.293Z,74.20
2022-09-21T22:51:37.920Z,74.10
2022-09-21T22:54:05.460Z,74.10
2022-09-21T22:56:33.881Z,74.90
2022-09-21T22:59:05.268Z,74.40
2022-09-21T23:01:40.399Z,74.50
2022-09-21T23:04:12.538Z,74.20
2022-09-21T23:06:42.290Z,74.10
2022-09-21T23:09:14.753Z,74.30
2022-09-21T23:11:48.039Z,74.20
2022-09-21T23:14:21.848Z,74.20
2022-09-21T23:16:51.865Z,74.40
2022-09-21T23:19:23.473Z,74.40
2022-09-21T23:21:53.468Z,74.40
2022-09-21T23:24:21.110Z,74.40
2022-09-21T23:26:51.630Z,74.50
2022-09-21T23:29:19.343Z,74.60
2022-09-21T23:31:49.330Z,74.40
2022-09-21T23:34:17.047Z,74.00
2022-09-21T23:36:47.473Z,73.90
2022-09-21T23:39:18.019Z,73.50
2022-09-21T23:41:45.611Z,73.30
2022-09-21T23:44:15.459Z,73.10
2022-09-21T23:46:42.968Z,73.00
2022-09-21T23:49:10.664Z,73.20
2022-09-21T23:51:38.132Z,73.10
2022-09-21T23:54:08.430Z,73.20
2022-09-21T23:56:36.394Z,73.00
2022-09-21T23:59:06.201Z,72.90
